createdAt,value
2017-08-02T00:00:16.141Z,22.23
2017-08-02T00:01:14.709Z,22.26
2017-08-02T00:02:14.406Z,22.26
2017-08-02T00:03:14.718Z,22.25
2017-08-02T00:04:14.714Z,22.17
2017-08-02T00:05:16.211Z,22.2
2017-08-02T00:06:14.728Z,22.11
2017-08-02T00:07:14.722Z,22.14
2017-08-02T00:08:14.797Z,22.1
2017-08-02T00:09:14.738Z,22.11
2017-08-02T00:10:15.850Z,22.2
2017-08-02T00:11:14.746Z,22.15
2017-08-02T00:12:14.448Z,22.14
2017-08-02T00:13:14.497Z,22.1
2017-08-02T00:14:14.501Z,22.07
2017-08-02T00:15:15.947Z,22.13
2017-08-02T00:16:14.784Z,22.11
2017-08-02T00:17:14.466Z,22.07
2017-08-02T00:18:14.468Z,22.06
2017-08-02T00:19:14.475Z,22.04
2017-08-02T00:20:15.839Z,22.15
2017-08-02T00:21:14.786Z,22.17
2017-08-02T00:22:14.481Z,22.23
2017-08-02T00:23:14.484Z,22.2
2017-08-02T00:24:14.488Z,22.26
2017-08-02T00:25:16.057Z,22.25
2017-08-02T00:26:14.803Z,22.26
2017-08-02T00:27:14.799Z,22.32
2017-08-02T00:28:14.806Z,22.26
2017-08-02T00:29:14.831Z,22.28
2017-08-02T00:30:16.305Z,22.28
2017-08-02T00:31:14.818Z,22.2
2017-08-02T00:32:14.823Z,22.18
2017-08-02T00:33:14.525Z,22.17
2017-08-02T00:34:14.829Z,22.14
2017-08-02T00:35:15.984Z,22.14
2017-08-02T00:36:14.854Z,22.13
2017-08-02T00:37:14.849Z,22.17
2017-08-02T00:38:14.851Z,22.18
2017-08-02T00:39:14.849Z,22.11
2017-08-02T00:40:15.619Z,22.11
2017-08-02T00:41:14.858Z,22.08
2017-08-02T00:42:14.559Z,22.13
2017-08-02T00:43:14.866Z,22.17
2017-08-02T00:44:14.870Z,22.13
2017-08-02T00:45:16.533Z,22.04
2017-08-02T00:46:14.879Z,22.02
2017-08-02T00:47:14.583Z,22
2017-08-02T00:48:14.879Z,21.98
2017-08-02T00:49:14.890Z,21.89
2017-08-02T00:50:16.331Z,21.95
2017-08-02T00:51:14.903Z,21.83
2017-08-02T00:52:14.599Z,21.77
2017-08-02T00:53:14.907Z,21.73
2017-08-02T00:54:14.905Z,21.66
2017-08-02T00:55:16.133Z,21.67
2017-08-02T00:56:14.910Z,21.55
2017-08-02T00:57:14.621Z,21.61
2017-08-02T00:58:14.922Z,21.58
2017-08-02T00:59:14.638Z,21.58
2017-08-02T01:00:18.307Z,21.55
2017-08-02T01:01:14.343Z,21.51
2017-08-02T01:02:14.953Z,21.48
2017-08-02T01:03:14.941Z,21.5
2017-08-02T01:04:14.943Z,21.51
2017-08-02T01:05:15.745Z,21.57
2017-08-02T01:06:14.659Z,21.54
2017-08-02T01:07:14.649Z,21.46
2017-08-02T01:08:14.652Z,21.45
2017-08-02T01:09:14.970Z,21.45
2017-08-02T01:10:15.940Z,21.52
2017-08-02T01:11:14.988Z,21.48
2017-08-02T01:12:15.009Z,21.46
2017-08-02T01:13:14.672Z,21.46
2017-08-02T01:14:14.678Z,21.46
2017-08-02T01:15:17.147Z,21.43
2017-08-02T01:16:14.699Z,21.36
2017-08-02T01:17:14.685Z,21.33
2017-08-02T01:18:15.015Z,21.37
2017-08-02T01:19:14.697Z,21.45
2017-08-02T01:20:15.962Z,21.37
2017-08-02T01:21:15.000Z,21.39
2017-08-02T01:22:15.009Z,21.22
2017-08-02T01:23:15.008Z,21.21
2017-08-02T01:24:14.712Z,21.29
2017-08-02T01:25:16.625Z,21.24
2017-08-02T01:26:15.013Z,21.22
2017-08-02T01:27:14.744Z,21.27
2017-08-02T01:28:14.725Z,21.24
2017-08-02T01:29:15.026Z,21.29
2017-08-02T01:30:18.373Z,21.27
2017-08-02T01:31:14.731Z,21.29
2017-08-02T01:32:15.032Z,21.27
2017-08-02T01:33:14.742Z,21.22
2017-08-02T01:34:14.738Z,21.2
2017-08-02T01:35:16.181Z,21.25
2017-08-02T01:36:15.046Z,21.21
2017-08-02T01:37:15.050Z,21.17
2017-08-02T01:38:15.055Z,21.22
2017-08-02T01:39:14.758Z,21.25
2017-08-02T01:40:16.561Z,21.25
2017-08-02T01:41:15.067Z,21.3
2017-08-02T01:42:15.079Z,21.25
2017-08-02T01:43:14.496Z,21.35
2017-08-02T01:44:15.080Z,21.43
2017-08-02T01:45:16.117Z,21.37
2017-08-02T01:46:15.091Z,21.4
2017-08-02T01:47:15.090Z,21.4
2017-08-02T01:48:15.085Z,21.39
2017-08-02T01:49:15.138Z,21.37
2017-08-02T01:50:15.489Z,21.37
2017-08-02T01:51:14.891Z,21.29
2017-08-02T01:52:15.204Z,21.37
2017-08-02T01:53:14.825Z,21.27
2017-08-02T01:54:14.943Z,21.4
2017-08-02T01:55:16.081Z,21.33
2017-08-02T01:56:15.110Z,21.21
2017-08-02T01:57:15.116Z,21.27
2017-08-02T01:58:14.817Z,21.29
2017-08-02T01:59:14.828Z,21.22
2017-08-02T02:00:16.639Z,21.22
2017-08-02T02:01:18.439Z,21.17
2017-08-02T02:02:14.831Z,21.22
2017-08-02T02:03:14.835Z,21.22
2017-08-02T02:04:14.835Z,21.18
2017-08-02T02:05:15.791Z,21.15
2017-08-02T02:06:15.151Z,21.05
2017-08-02T02:07:15.146Z,21.06
2017-08-02T02:08:15.156Z,21.05
2017-08-02T02:09:15.152Z,21.05
2017-08-02T02:10:16.107Z,21.14
2017-08-02T02:11:15.166Z,21.07
2017-08-02T02:12:14.867Z,21.11
2017-08-02T02:13:15.164Z,21.07
2017-08-02T02:14:15.179Z,21.14
2017-08-02T02:15:16.196Z,21.18
2017-08-02T02:16:15.236Z,21.22
2017-08-02T02:17:14.879Z,21.22
2017-08-02T02:18:15.184Z,21.29
2017-08-02T02:19:14.886Z,21.25
2017-08-02T02:20:15.497Z,21.24
2017-08-02T02:21:14.896Z,21.22
2017-08-02T02:22:15.204Z,21.22
2017-08-02T02:23:15.204Z,21.29
2017-08-02T02:24:14.598Z,21.2
2017-08-02T02:25:16.488Z,21.22
2017-08-02T02:26:14.920Z,21.22
2017-08-02T02:27:15.217Z,21.17
2017-08-02T02:28:15.216Z,21.14
2017-08-02T02:29:15.218Z,21.17
2017-08-02T02:30:16.242Z,21.17
2017-08-02T02:31:18.529Z,21.25
2017-08-02T02:32:14.927Z,21.17
2017-08-02T02:33:15.233Z,21.12
2017-08-02T02:34:15.243Z,21.15
2017-08-02T02:35:16.509Z,21.15
2017-08-02T02:36:15.254Z,21.11
2017-08-02T02:37:15.265Z,21.09
2017-08-02T02:38:14.949Z,21.18
2017-08-02T02:39:14.950Z,21.15
2017-08-02T02:40:16.602Z,21.21
2017-08-02T02:41:15.269Z,21.2
2017-08-02T02:42:14.963Z,21.21
2017-08-02T02:43:15.273Z,21.21
2017-08-02T02:44:14.985Z,21.2
2017-08-02T02:45:16.169Z,21.2
2017-08-02T02:46:15.281Z,21.22
2017-08-02T02:47:15.280Z,21.17
2017-08-02T02:48:15.284Z,21.22
2017-08-02T02:49:15.293Z,21.25
2017-08-02T02:50:15.973Z,21.22
2017-08-02T02:51:14.711Z,21.24
2017-08-02T02:52:15.295Z,21.24
2017-08-02T02:53:14.992Z,21.2
2017-08-02T02:54:15.302Z,21.11
2017-08-02T02:55:16.024Z,21.03
2017-08-02T02:56:15.308Z,20.96
2017-08-02T02:57:15.325Z,20.97
2017-08-02T02:58:15.317Z,20.93
2017-08-02T02:59:15.317Z,20.88
2017-08-02T03:00:16.963Z,20.92
2017-08-02T03:01:15.345Z,20.95
2017-08-02T03:02:14.737Z,21
2017-08-02T03:03:15.348Z,21.02
2017-08-02T03:04:15.038Z,21.06
2017-08-02T03:05:16.963Z,21.03
2017-08-02T03:06:15.347Z,21.12
2017-08-02T03:07:15.048Z,21.06
2017-08-02T03:08:15.351Z,21.06
2017-08-02T03:09:15.044Z,21.09
2017-08-02T03:10:16.323Z,21.12
2017-08-02T03:11:15.353Z,21.11
2017-08-02T03:12:15.357Z,21.14
2017-08-02T03:13:15.380Z,21.07
2017-08-02T03:14:15.362Z,21.06
2017-08-02T03:15:16.230Z,20.99
2017-08-02T03:16:15.381Z,20.99
2017-08-02T03:17:15.634Z,20.96
2017-08-02T03:18:15.407Z,20.9
2017-08-02T03:19:15.380Z,20.92
2017-08-02T03:20:16.935Z,20.88
2017-08-02T03:21:15.393Z,20.84
2017-08-02T03:22:15.087Z,20.81
2017-08-02T03:23:15.394Z,20.82
2017-08-02T03:24:15.411Z,20.67
2017-08-02T03:25:15.951Z,20.75
2017-08-02T03:26:15.417Z,20.72
2017-08-02T03:27:15.109Z,20.69
2017-08-02T03:28:15.416Z,20.72
2017-08-02T03:29:15.425Z,20.8
2017-08-02T03:30:16.200Z,20.7
2017-08-02T03:31:15.433Z,20.7
2017-08-02T03:32:18.379Z,20.66
2017-08-02T03:33:15.427Z,20.67
2017-08-02T03:34:15.435Z,20.7
2017-08-02T03:35:16.977Z,20.72
2017-08-02T03:36:15.134Z,20.77
2017-08-02T03:37:15.436Z,20.74
2017-08-02T03:38:15.460Z,20.6
2017-08-02T03:39:15.440Z,20.65
2017-08-02T03:40:16.758Z,20.69
2017-08-02T03:41:15.454Z,20.69
2017-08-02T03:42:15.467Z,20.6
2017-08-02T03:43:15.456Z,20.62
2017-08-02T03:44:15.461Z,20.67
2017-08-02T03:45:16.721Z,20.65
2017-08-02T03:46:15.479Z,20.63
2017-08-02T03:47:15.489Z,20.69
2017-08-02T03:48:15.180Z,20.67
2017-08-02T03:49:15.480Z,20.58
2017-08-02T03:50:17.083Z,20.74
2017-08-02T03:51:15.185Z,20.6
2017-08-02T03:52:15.199Z,20.67
2017-08-02T03:53:15.200Z,20.69
2017-08-02T03:54:15.492Z,20.62
2017-08-02T03:55:16.523Z,20.69
2017-08-02T03:56:15.498Z,20.72
2017-08-02T03:57:15.503Z,20.66
2017-08-02T03:58:15.201Z,20.6
2017-08-02T03:59:15.531Z,20.63
2017-08-02T04:00:16.438Z,20.62
2017-08-02T04:01:15.515Z,20.69
2017-08-02T04:02:15.539Z,20.6
2017-08-02T04:03:15.520Z,20.66
2017-08-02T04:04:15.218Z,20.65
2017-08-02T04:05:17.248Z,20.6
2017-08-02T04:06:15.228Z,20.62
2017-08-02T04:07:15.231Z,20.65
2017-08-02T04:08:15.534Z,20.66
2017-08-02T04:09:15.245Z,20.67
2017-08-02T04:10:16.621Z,20.7
2017-08-02T04:11:15.241Z,20.65
2017-08-02T04:12:15.553Z,20.74
2017-08-02T04:13:15.248Z,20.7
2017-08-02T04:14:15.548Z,20.77
2017-08-02T04:15:17.245Z,20.8
2017-08-02T04:16:15.555Z,20.81
2017-08-02T04:17:15.256Z,20.85
2017-08-02T04:18:17.513Z,20.85
2017-08-02T04:19:15.568Z,20.81
2017-08-02T04:20:16.641Z,20.88
2017-08-02T04:21:15.570Z,20.69
2017-08-02T04:22:15.272Z,20.84
2017-08-02T04:23:15.579Z,20.87
2017-08-02T04:24:15.278Z,20.87
2017-08-02T04:25:16.182Z,20.93
2017-08-02T04:26:15.611Z,20.95
2017-08-02T04:27:15.589Z,21
2017-08-02T04:28:15.286Z,21.05
2017-08-02T04:29:15.614Z,20.99
2017-08-02T04:30:16.656Z,21.09
2017-08-02T04:31:15.307Z,21.06
2017-08-02T04:32:15.611Z,21.12
2017-08-02T04:33:16.066Z,21.2
2017-08-02T04:34:15.613Z,21.21
2017-08-02T04:35:17.199Z,21.29
2017-08-02T04:36:15.627Z,21.2
2017-08-02T04:37:15.635Z,21.33
2017-08-02T04:38:15.631Z,21.45
2017-08-02T04:39:15.637Z,21.45
2017-08-02T04:40:16.535Z,21.57
2017-08-02T04:41:15.636Z,21.48
2017-08-02T04:42:15.340Z,21.51
2017-08-02T04:43:15.646Z,21.62
2017-08-02T04:44:15.647Z,21.62
2017-08-02T04:45:16.997Z,21.54
2017-08-02T04:46:15.359Z,21.61
2017-08-02T04:47:15.670Z,21.7
2017-08-02T04:48:15.434Z,21.57
2017-08-02T04:49:15.366Z,21.67
2017-08-02T04:50:17.235Z,21.7
2017-08-02T04:51:15.683Z,21.73
2017-08-02T04:52:15.682Z,21.72
2017-08-02T04:53:15.688Z,21.79
2017-08-02T04:54:15.684Z,21.91
2017-08-02T04:55:17.324Z,21.92
2017-08-02T04:56:15.692Z,21.93
2017-08-02T04:57:15.426Z,21.85
2017-08-02T04:58:15.707Z,21.83
2017-08-02T04:59:15.703Z,21.98
2017-08-02T05:00:16.745Z,21.88
2017-08-02T05:01:15.713Z,21.92
2017-08-02T05:02:15.111Z,21.91
2017-08-02T05:03:17.665Z,21.83
2017-08-02T05:04:15.722Z,21.88
2017-08-02T05:05:17.285Z,21.88
2017-08-02T05:06:15.726Z,21.91
2017-08-02T05:07:15.431Z,22.04
2017-08-02T05:08:15.444Z,21.92
2017-08-02T05:09:15.737Z,21.96
2017-08-02T05:10:17.330Z,22
2017-08-02T05:11:15.756Z,21.91
2017-08-02T05:12:15.761Z,21.91
2017-08-02T05:13:15.760Z,21.82
2017-08-02T05:14:15.757Z,21.79
2017-08-02T05:15:17.423Z,21.76
2017-08-02T05:16:15.761Z,21.89
2017-08-02T05:17:15.780Z,21.88
2017-08-02T05:18:16.880Z,21.91
2017-08-02T05:19:15.778Z,21.92
2017-08-02T05:20:16.713Z,21.88
2017-08-02T05:21:15.784Z,21.92
2017-08-02T05:22:15.805Z,21.96
2017-08-02T05:23:15.804Z,21.85
2017-08-02T05:24:15.806Z,21.76
2017-08-02T05:25:16.390Z,21.66
2017-08-02T05:26:15.807Z,21.67
2017-08-02T05:27:15.807Z,21.67
2017-08-02T05:28:15.825Z,21.72
2017-08-02T05:29:15.826Z,21.73
2017-08-02T05:30:16.302Z,21.83
2017-08-02T05:31:15.832Z,21.95
2017-08-02T05:32:15.223Z,21.93
2017-08-02T05:33:15.827Z,22.08
2017-08-02T05:34:15.849Z,22.28
2017-08-02T05:35:17.504Z,22.29
2017-08-02T05:36:15.853Z,22.48
2017-08-02T05:37:15.849Z,22.66
2017-08-02T05:38:15.853Z,22.84
2017-08-02T05:39:15.552Z,23.13
2017-08-02T05:40:16.893Z,23.54
2017-08-02T05:41:15.875Z,23.66
2017-08-02T05:42:15.881Z,23.87
2017-08-02T05:43:15.575Z,24.13
2017-08-02T05:44:15.909Z,24.39
2017-08-02T05:45:16.809Z,24.51
2017-08-02T05:46:15.898Z,24.5
2017-08-02T05:47:15.588Z,24.33
2017-08-02T05:48:15.592Z,24.21
2017-08-02T05:49:15.604Z,24.18
2017-08-02T05:50:17.189Z,24.3
2017-08-02T05:51:15.610Z,24.33
2017-08-02T05:52:15.922Z,24.51
2017-08-02T05:53:15.922Z,24.55
2017-08-02T05:54:15.930Z,24.68
2017-08-02T05:55:17.468Z,24.69
2017-08-02T05:56:15.944Z,24.66
2017-08-02T05:57:15.950Z,24.66
2017-08-02T05:58:15.948Z,24.66
2017-08-02T05:59:15.654Z,24.68
2017-08-02T06:00:17.056Z,24.58
2017-08-02T06:01:15.969Z,24.55
2017-08-02T06:02:15.977Z,24.54
2017-08-02T06:03:15.985Z,24.51
2017-08-02T06:04:15.978Z,24.47
2017-08-02T06:05:16.586Z,24.43
2017-08-02T06:06:15.990Z,24.45
2017-08-02T06:07:16.005Z,24.6
2017-08-02T06:08:16.035Z,24.7
2017-08-02T06:09:15.718Z,24.86
2017-08-02T06:10:17.197Z,24.95
2017-08-02T06:11:16.016Z,25.07
2017-08-02T06:12:15.731Z,25.46
2017-08-02T06:13:16.046Z,25.81
2017-08-02T06:14:15.749Z,26.21
2017-08-02T06:15:17.716Z,26.65
2017-08-02T06:16:16.055Z,26.75
2017-08-02T06:17:15.751Z,26.8
2017-08-02T06:18:16.056Z,26.83
2017-08-02T06:19:17.215Z,26.7
2017-08-02T06:20:17.334Z,26.6
2017-08-02T06:21:16.076Z,26.43
2017-08-02T06:22:16.074Z,26.28
2017-08-02T06:23:16.081Z,25.95
2017-08-02T06:24:16.116Z,25.6
2017-08-02T06:25:17.104Z,25.26
2017-08-02T06:26:16.101Z,25.01
2017-08-02T06:27:15.808Z,24.85
2017-08-02T06:28:16.119Z,24.7
2017-08-02T06:29:16.130Z,24.48
2017-08-02T06:30:16.911Z,24.33
2017-08-02T06:31:16.140Z,24.32
2017-08-02T06:32:16.142Z,24.35
2017-08-02T06:33:16.140Z,24.5
2017-08-02T06:34:18.747Z,24.65
2017-08-02T06:35:16.904Z,25.01
2017-08-02T06:36:15.852Z,25.41
2017-08-02T06:37:16.161Z,25.58
2017-08-02T06:38:16.172Z,25.63
2017-08-02T06:39:16.171Z,25.66
2017-08-02T06:40:17.451Z,25.66
2017-08-02T06:41:16.183Z,25.62
2017-08-02T06:42:16.189Z,25.62
2017-08-02T06:43:16.196Z,25.63
2017-08-02T06:44:16.201Z,25.7
2017-08-02T06:45:17.042Z,25.68
2017-08-02T06:46:16.209Z,25.66
2017-08-02T06:47:16.216Z,25.6
2017-08-02T06:48:16.226Z,25.73
2017-08-02T06:49:16.277Z,25.6
2017-08-02T06:50:17.493Z,25.63
2017-08-02T06:51:15.951Z,25.72
2017-08-02T06:52:15.943Z,25.83
2017-08-02T06:53:16.249Z,26.28
2017-08-02T06:54:15.958Z,26.66
2017-08-02T06:55:17.358Z,27
2017-08-02T06:56:16.273Z,27.47
2017-08-02T06:57:16.281Z,27.85
2017-08-02T06:58:16.289Z,27.8
2017-08-02T06:59:16.291Z,27.9
2017-08-02T07:00:16.412Z,28
2017-08-02T07:01:16.312Z,28.14
2017-08-02T07:02:16.312Z,28.14
2017-08-02T07:03:16.315Z,28.1
2017-08-02T07:04:19.723Z,27.85
2017-08-02T07:05:17.605Z,27.83
2017-08-02T07:06:16.045Z,27.55
2017-08-02T07:07:16.036Z,27.39
2017-08-02T07:08:16.042Z,27.33
2017-08-02T07:09:16.353Z,27.17
2017-08-02T07:10:17.188Z,27.05
2017-08-02T07:11:16.367Z,27
2017-08-02T07:12:16.378Z,26.96
2017-08-02T07:13:16.382Z,26.89
2017-08-02T07:14:16.383Z,26.81
2017-08-02T07:15:17.182Z,26.7
2017-08-02T07:16:16.403Z,26.73
2017-08-02T07:17:16.102Z,26.66
2017-08-02T07:18:16.118Z,26.51
2017-08-02T07:19:15.818Z,26.48
2017-08-02T07:20:17.499Z,26.4
2017-08-02T07:21:16.437Z,26.36
2017-08-02T07:22:16.132Z,26.26
2017-08-02T07:23:16.441Z,26.07
2017-08-02T07:24:16.446Z,25.99
2017-08-02T07:25:17.089Z,25.93
2017-08-02T07:26:16.461Z,25.73
2017-08-02T07:27:16.488Z,25.83
2017-08-02T07:28:16.468Z,25.72
2017-08-02T07:29:15.871Z,25.83
2017-08-02T07:30:17.614Z,25.85
2017-08-02T07:31:16.188Z,25.81
2017-08-02T07:32:16.501Z,25.91
2017-08-02T07:33:16.539Z,25.93
2017-08-02T07:34:16.517Z,26.03
2017-08-02T07:35:18.304Z,26.18
2017-08-02T07:36:15.918Z,26.18
2017-08-02T07:37:16.518Z,26.19
2017-08-02T07:38:16.527Z,26.13
2017-08-02T07:39:16.530Z,26.07
2017-08-02T07:40:16.682Z,25.96
2017-08-02T07:41:16.548Z,25.84
2017-08-02T07:42:16.549Z,25.84
2017-08-02T07:43:16.562Z,25.91
2017-08-02T07:44:16.578Z,25.91
2017-08-02T07:45:17.051Z,25.9
2017-08-02T07:46:16.577Z,25.98
2017-08-02T07:47:16.579Z,26.07
2017-08-02T07:48:16.585Z,26.07
2017-08-02T07:49:16.589Z,26.15
2017-08-02T07:50:17.919Z,26.07
2017-08-02T07:51:16.600Z,26.07
2017-08-02T07:52:16.305Z,25.93
2017-08-02T07:53:16.303Z,25.96
2017-08-02T07:54:16.337Z,25.9
2017-08-02T07:55:17.480Z,25.84
2017-08-02T07:56:16.329Z,25.85
2017-08-02T07:57:16.330Z,25.93
2017-08-02T07:58:16.637Z,25.93
2017-08-02T07:59:16.641Z,25.95
2017-08-02T08:00:17.904Z,26.07
2017-08-02T08:01:16.360Z,26.29
2017-08-02T08:02:16.675Z,26.56
2017-08-02T08:03:16.685Z,26.84
2017-08-02T08:04:16.382Z,27.08
2017-08-02T08:05:16.930Z,27.2
2017-08-02T08:06:18.636Z,27.35
2017-08-02T08:07:16.394Z,27.26
2017-08-02T08:08:16.706Z,27.18
2017-08-02T08:09:16.708Z,27.08
2017-08-02T08:10:17.608Z,27
2017-08-02T08:11:16.717Z,26.9
2017-08-02T08:12:16.423Z,26.85
2017-08-02T08:13:16.128Z,26.78
2017-08-02T08:14:16.442Z,26.7
2017-08-02T08:15:17.441Z,26.59
2017-08-02T08:16:16.445Z,26.52
2017-08-02T08:17:16.757Z,26.45
2017-08-02T08:18:16.755Z,26.36
2017-08-02T08:19:16.764Z,26.21
2017-08-02T08:20:17.259Z,26.21
2017-08-02T08:21:16.821Z,26.26
2017-08-02T08:22:16.778Z,26.45
2017-08-02T08:23:16.786Z,26.59
2017-08-02T08:24:16.793Z,26.83
2017-08-02T08:25:17.709Z,26.99
2017-08-02T08:26:16.800Z,27.1
2017-08-02T08:27:16.507Z,27.17
2017-08-02T08:28:16.513Z,27.18
2017-08-02T08:29:16.822Z,27.22
2017-08-02T08:30:17.448Z,27.25
2017-08-02T08:31:16.844Z,27.26
2017-08-02T08:32:16.841Z,27.2
2017-08-02T08:33:16.863Z,27.25
2017-08-02T08:34:16.554Z,27.27
2017-08-02T08:35:17.208Z,27.2
2017-08-02T08:36:17.770Z,27.25
2017-08-02T08:37:16.573Z,27.36
2017-08-02T08:38:16.878Z,27.68
2017-08-02T08:39:16.582Z,27.65
2017-08-02T08:40:17.416Z,27.71
2017-08-02T08:41:16.304Z,27.65
2017-08-02T08:42:16.903Z,27.49
2017-08-02T08:43:16.920Z,27.3
2017-08-02T08:44:16.920Z,27.29
2017-08-02T08:45:18.262Z,27.1
2017-08-02T08:46:16.929Z,27.12
2017-08-02T08:47:16.944Z,27.22
2017-08-02T08:48:16.641Z,27.42
2017-08-02T08:49:16.945Z,27.58
2017-08-02T08:50:17.584Z,27.93
2017-08-02T08:51:16.667Z,28.2
2017-08-02T08:52:16.661Z,28.45
2017-08-02T08:53:16.984Z,28.45
2017-08-02T08:54:16.985Z,28.41
2017-08-02T08:55:17.884Z,28.39
2017-08-02T08:56:16.696Z,28.17
2017-08-02T08:57:17.014Z,28.04
2017-08-02T08:58:17.003Z,27.82
2017-08-02T08:59:16.710Z,27.85
2017-08-02T09:00:17.888Z,27.82
2017-08-02T09:01:16.722Z,27.85
2017-08-02T09:02:17.050Z,27.65
2017-08-02T09:03:17.047Z,27.68
2017-08-02T09:04:17.056Z,27.55
2017-08-02T09:05:17.761Z,27.51
2017-08-02T09:06:17.063Z,27.59
2017-08-02T09:07:16.773Z,27.52
2017-08-02T09:08:17.070Z,27.54
2017-08-02T09:09:16.786Z,27.49
2017-08-02T09:10:17.731Z,27.54
2017-08-02T09:11:17.090Z,27.49
2017-08-02T09:12:17.097Z,27.63
2017-08-02T09:13:17.101Z,27.65
2017-08-02T09:14:17.108Z,27.65
2017-08-02T09:15:17.740Z,27.54
2017-08-02T09:16:17.127Z,27.52
2017-08-02T09:17:17.128Z,27.58
2017-08-02T09:18:17.143Z,27.65
2017-08-02T09:19:16.841Z,27.71
2017-08-02T09:20:17.613Z,27.9
2017-08-02T09:21:17.155Z,27.87
2017-08-02T09:22:17.210Z,27.85
2017-08-02T09:23:17.167Z,28
2017-08-02T09:24:17.172Z,27.89
2017-08-02T09:25:17.834Z,27.86
2017-08-02T09:26:17.183Z,27.77
2017-08-02T09:27:16.908Z,27.87
2017-08-02T09:28:17.205Z,27.89
2017-08-02T09:29:17.232Z,27.71
2017-08-02T09:30:17.869Z,27.7
2017-08-02T09:31:17.232Z,27.75
2017-08-02T09:32:17.254Z,28.07
2017-08-02T09:33:16.932Z,28.12
2017-08-02T09:34:16.943Z,28.17
2017-08-02T09:35:17.352Z,28.22
2017-08-02T09:36:16.961Z,28.2
2017-08-02T09:37:18.363Z,28.15
2017-08-02T09:38:17.257Z,28.12
2017-08-02T09:39:17.264Z,28.23
2017-08-02T09:40:18.366Z,28.25
2017-08-02T09:41:17.280Z,28.25
2017-08-02T09:42:17.297Z,28.26
2017-08-02T09:43:17.305Z,28.23
2017-08-02T09:44:16.996Z,28.33
2017-08-02T09:45:17.438Z,28.39
2017-08-02T09:46:17.014Z,28.47
2017-08-02T09:47:17.025Z,28.47
2017-08-02T09:48:17.323Z,28.48
2017-08-02T09:49:17.030Z,28.44
2017-08-02T09:50:17.986Z,28.41
2017-08-02T09:51:17.350Z,28.35
2017-08-02T09:52:18.857Z,28.42
2017-08-02T09:53:17.364Z,28.52
2017-08-02T09:54:17.059Z,28.52
2017-08-02T09:55:17.981Z,28.42
2017-08-02T09:56:16.773Z,28.27
2017-08-02T09:57:17.080Z,28.37
2017-08-02T09:58:17.087Z,28.51
2017-08-02T09:59:17.398Z,28.47
2017-08-02T10:00:18.086Z,28.47
2017-08-02T10:01:17.113Z,28.26
2017-08-02T10:02:17.415Z,28.3
2017-08-02T10:03:17.429Z,28.25
2017-08-02T10:04:17.127Z,28.17
2017-08-02T10:05:18.484Z,28.22
2017-08-02T10:06:17.141Z,28.22
2017-08-02T10:07:16.854Z,28.33
2017-08-02T10:08:17.152Z,28.45
2017-08-02T10:09:17.460Z,28.49
2017-08-02T10:10:18.586Z,28.51
2017-08-02T10:11:17.479Z,28.48
2017-08-02T10:12:17.479Z,28.42
2017-08-02T10:13:17.486Z,28.42
2017-08-02T10:14:17.488Z,28.35
2017-08-02T10:15:18.370Z,28.42
2017-08-02T10:16:17.506Z,28.44
2017-08-02T10:17:17.512Z,28.44
2017-08-02T10:18:17.522Z,28.45
2017-08-02T10:19:17.228Z,28.51
2017-08-02T10:20:18.479Z,28.47
2017-08-02T10:21:17.536Z,28.45
2017-08-02T10:22:17.255Z,28.48
2017-08-02T10:23:17.549Z,28.32
2017-08-02T10:24:17.260Z,28.2
2017-08-02T10:25:18.143Z,28.07
2017-08-02T10:26:17.567Z,27.9
2017-08-02T10:27:17.577Z,27.89
2017-08-02T10:28:17.611Z,27.85
2017-08-02T10:29:17.586Z,27.77
2017-08-02T10:30:18.004Z,27.78
2017-08-02T10:31:17.606Z,27.96
2017-08-02T10:32:17.608Z,28.05
2017-08-02T10:33:17.613Z,28.17
2017-08-02T10:34:17.619Z,28.2
2017-08-02T10:35:18.362Z,28.27
2017-08-02T10:36:17.630Z,28.29
2017-08-02T10:37:17.638Z,28.41
2017-08-02T10:38:17.349Z,28.42
2017-08-02T10:39:17.345Z,28.3
2017-08-02T10:40:18.337Z,28.32
2017-08-02T10:41:17.663Z,28.37
2017-08-02T10:42:17.372Z,28.32
2017-08-02T10:43:17.675Z,28.29
2017-08-02T10:44:17.393Z,28.23
2017-08-02T10:45:18.392Z,28.12
2017-08-02T10:46:17.691Z,27.93
2017-08-02T10:47:17.700Z,27.8
2017-08-02T10:48:17.407Z,27.78
2017-08-02T10:49:17.720Z,27.65
2017-08-02T10:50:18.031Z,27.64
2017-08-02T10:51:17.425Z,27.64
2017-08-02T10:52:17.424Z,27.65
2017-08-02T10:53:17.455Z,27.64
2017-08-02T10:54:17.756Z,27.83
2017-08-02T10:55:18.422Z,27.83
2017-08-02T10:56:17.458Z,28
2017-08-02T10:57:17.460Z,28.22
2017-08-02T10:58:17.469Z,28.39
2017-08-02T10:59:17.774Z,28.39
2017-08-02T11:00:18.166Z,28.51
2017-08-02T11:01:17.492Z,28.42
2017-08-02T11:02:17.792Z,28.47
2017-08-02T11:03:17.804Z,28.47
2017-08-02T11:04:17.504Z,28.39
2017-08-02T11:05:18.512Z,28.52
2017-08-02T11:06:17.518Z,28.47
2017-08-02T11:07:17.829Z,28.37
2017-08-02T11:08:17.829Z,28.48
2017-08-02T11:09:17.833Z,28.48
2017-08-02T11:10:18.599Z,28.56
2017-08-02T11:11:17.543Z,28.56
2017-08-02T11:12:17.878Z,28.85
2017-08-02T11:13:17.862Z,28.94
2017-08-02T11:14:17.865Z,28.96
2017-08-02T11:15:18.042Z,28.89
2017-08-02T11:16:17.882Z,28.82
2017-08-02T11:17:17.579Z,28.78
2017-08-02T11:18:17.899Z,28.89
2017-08-02T11:19:17.894Z,28.93
2017-08-02T11:20:17.946Z,28.96
2017-08-02T11:21:17.912Z,29.04
2017-08-02T11:22:17.921Z,29.04
2017-08-02T11:23:17.629Z,29.1
2017-08-02T11:24:17.932Z,29.16
2017-08-02T11:25:18.535Z,29.34
2017-08-02T11:26:17.640Z,29.24
2017-08-02T11:27:17.954Z,29.12
2017-08-02T11:28:17.962Z,28.98
2017-08-02T11:29:17.672Z,28.93
2017-08-02T11:30:18.756Z,29.04
2017-08-02T11:31:17.974Z,29.13
2017-08-02T11:32:17.680Z,29.05
2017-08-02T11:33:17.988Z,29.19
2017-08-02T11:34:17.996Z,29.24
2017-08-02T11:35:18.816Z,29.31
2017-08-02T11:36:17.405Z,29.35
2017-08-02T11:37:18.021Z,29.42
2017-08-02T11:38:18.034Z,29.51
2017-08-02T11:39:18.032Z,29.66
2017-08-02T11:40:18.621Z,29.75
2017-08-02T11:41:18.040Z,29.73
2017-08-02T11:42:18.056Z,29.79
2017-08-02T11:43:18.095Z,29.84
2017-08-02T11:44:17.464Z,29.86
2017-08-02T11:45:18.251Z,30.08
2017-08-02T11:46:18.075Z,30.06
2017-08-02T11:47:18.085Z,30.25
2017-08-02T11:48:18.100Z,30.34
2017-08-02T11:49:18.099Z,30.34
2017-08-02T11:50:18.553Z,30.31
2017-08-02T11:51:18.108Z,30.32
2017-08-02T11:52:18.116Z,30.44
2017-08-02T11:53:18.172Z,30.48
2017-08-02T11:54:18.133Z,30.4
2017-08-02T11:55:18.744Z,30.28
2017-08-02T11:56:18.158Z,30.16
2017-08-02T11:57:18.166Z,30.12
2017-08-02T11:58:17.866Z,29.86
2017-08-02T11:59:18.169Z,29.84
2017-08-02T12:00:18.942Z,29.69
2017-08-02T12:01:18.026Z,29.65
2017-08-02T12:02:18.190Z,29.49
2017-08-02T12:03:18.199Z,29.39
2017-08-02T12:04:18.205Z,29.32
2017-08-02T12:05:18.460Z,29.13
2017-08-02T12:06:18.220Z,29.01
2017-08-02T12:07:18.231Z,28.96
2017-08-02T12:08:19.238Z,28.89
2017-08-02T12:09:17.933Z,28.97
2017-08-02T12:10:18.873Z,28.97
2017-08-02T12:11:18.248Z,29.02
2017-08-02T12:12:18.257Z,29.04
2017-08-02T12:13:17.658Z,29.16
2017-08-02T12:14:18.268Z,29.23
2017-08-02T12:15:19.087Z,29.32
2017-08-02T12:16:18.306Z,29.41
2017-08-02T12:17:18.297Z,29.38
2017-08-02T12:18:18.334Z,29.23
2017-08-02T12:19:17.999Z,29.08
2017-08-02T12:20:18.604Z,28.88
2017-08-02T12:21:18.314Z,28.81
2017-08-02T12:22:18.317Z,28.98
2017-08-02T12:23:19.880Z,29.07
2017-08-02T12:24:18.328Z,29.12
2017-08-02T12:25:18.163Z,28.96
2017-08-02T12:26:18.335Z,28.96
2017-08-02T12:27:18.354Z,28.97
2017-08-02T12:28:18.359Z,29.08
2017-08-02T12:29:18.067Z,29.1
2017-08-02T12:30:18.462Z,29.05
2017-08-02T12:31:18.380Z,29.01
2017-08-02T12:32:18.380Z,29.01
2017-08-02T12:33:18.094Z,29.04
2017-08-02T12:34:18.399Z,28.94
2017-08-02T12:35:18.604Z,29.02
2017-08-02T12:36:18.413Z,29.04
2017-08-02T12:37:17.807Z,29.07
2017-08-02T12:38:19.487Z,28.84
2017-08-02T12:39:19.038Z,28.75
2017-08-02T12:40:18.723Z,28.74
2017-08-02T12:41:18.987Z,28.72
2017-08-02T12:42:18.662Z,28.67
2017-08-02T12:43:17.859Z,28.75
2017-08-02T12:44:18.460Z,28.78
2017-08-02T12:45:18.874Z,28.75
2017-08-02T12:46:18.495Z,28.81
2017-08-02T12:47:18.186Z,28.89
2017-08-02T12:48:18.193Z,29.04
2017-08-02T12:49:18.191Z,29.13
2017-08-02T12:50:18.490Z,29.31
2017-08-02T12:51:18.514Z,29.42
2017-08-02T12:52:18.509Z,29.39
2017-08-02T12:53:18.534Z,29.38
2017-08-02T12:54:18.229Z,29.41
2017-08-02T12:55:19.109Z,29.36
2017-08-02T12:56:18.230Z,29.36